Other Surface Observations
Issued by NWS Missoula, MT

Home | Current Version | Previous Version | Text Only | Print | Product List | Glossary On
Versions: 1 2 3 4 5 6 7 8 9 10 11 12 13 14 15 16 17 18 19 20 21 22 23 24 25 26 27 28 29 30 31 32 33 34 35 36 37 38 39 40 41 42 43 44 45 46 47 48 49 50
526
SXUS55 KMSO 241123
OSOMSO
MONTANA AWOS SUMMARY
NATIONAL WEATHER SERVICE MISSOULA MT
523 AM MDT TUE OCT 24 2017

Montana AWOS Reports

SCOBEY      |K9S2 241055Z AUTO 00000KT 40SM M05/M12 A3033 RMK AO1 T10491116
PLAINS      |KS34 241055Z AUTO 00000KT 15SM M02/M04 A3067 RMK AO1 T10161043
ROUNDUP     |KRPX 241055Z AUTO 19008KT 40SM 01/M07 A3033 RMK AO1 T00061066
EKALAKA     |K97M 241055Z AUTO 00000KT 40SM M01/M07 A3037 RMK AO1 T10051071




USA.gov is the U.S. government's official web portal to all federal, state and local government web resources and services.